sensor_id;sensor_type;location;lat;lon;timestamp;temperature;humidity
21282;DHT22;10800;53.096;18.328;2022-09-09T00:07:47;13.20;99.90
21282;DHT22;10800;53.096;18.328;2022-09-09T00:18:28;13.20;99.90
21282;DHT22;10800;53.096;18.328;2022-09-09T00:23:39;13.10;99.90
21282;DHT22;10800;53.096;18.328;2022-09-09T00:34:20;13.20;99.90
21282;DHT22;10800;53.096;18.328;2022-09-09T00:39:46;13.20;99.90
21282;DHT22;10800;53.096;18.328;2022-09-09T01:01:04;13.00;99.90
21282;DHT22;10800;53.096;18.328;2022-09-09T01:06:28;13.00;99.90
21282;DHT22;10800;53.096;18.328;2022-09-09T01:12:09;13.00;99.90
21282;DHT22;10800;53.096;18.328;2022-09-09T01:17:30;13.00;99.90
21282;DHT22;10800;53.096;18.328;2022-09-09T01:23:19;13.00;99.90
21282;DHT22;10800;53.096;18.328;2022-09-09T01:27:46;13.00;99.90
21282;DHT22;10800;53.096;18.328;2022-09-09T01:32:57;13.10;99.90
21282;DHT22;10800;53.096;18.328;2022-09-09T01:38:07;13.10;99.90
21282;DHT22;10800;53.096;18.328;2022-09-09T01:43:13;13.20;99.90
21282;DHT22;10800;53.096;18.328;2022-09-09T01:48:19;12.90;99.90
21282;DHT22;10800;53.096;18.328;2022-09-09T01:53:26;12.90;99.90
21282;DHT22;10800;53.096;18.328;2022-09-09T02:03:49;12.90;99.90
21282;DHT22;10800;53.096;18.328;2022-09-09T02:09:00;12.90;99.90
21282;DHT22;10800;53.096;18.328;2022-09-09T02:14:10;12.80;99.90
21282;DHT22;10800;53.096;18.328;2022-09-09T02:19:21;12.90;99.90
21282;DHT22;10800;53.096;18.328;2022-09-09T02:24:35;12.80;99.90
21282;DHT22;10800;53.096;18.328;2022-09-09T02:29:46;12.80;99.90
21282;DHT22;10800;53.096;18.328;2022-09-09T02:34:59;12.80;99.90
21282;DHT22;10800;53.096;18.328;2022-09-09T02:40:08;12.70;99.90
21282;DHT22;10800;53.096;18.328;2022-09-09T02:45:25;12.60;99.90
21282;DHT22;10800;53.096;18.328;2022-09-09T02:51:23;12.60;99.90
21282;DHT22;10800;53.096;18.328;2022-09-09T02:55:57;12.70;99.90
21282;DHT22;10800;53.096;18.328;2022-09-09T03:01:02;12.70;99.90
21282;DHT22;10800;53.096;18.328;2022-09-09T03:06:11;12.70;99.90
21282;DHT22;10800;53.096;18.328;2022-09-09T03:11:18;12.60;99.90
21282;DHT22;10800;53.096;18.328;2022-09-09T03:16:29;12.60;99.90
21282;DHT22;10800;53.096;18.328;2022-09-09T03:21:36;12.60;99.90
21282;DHT22;10800;53.096;18.328;2022-09-09T03:26:45;12.60;99.90
21282;DHT22;10800;53.096;18.328;2022-09-09T03:32:01;12.60;99.90
21282;DHT22;10800;53.096;18.328;2022-09-09T03:37:10;12.60;99.90
21282;DHT22;10800;53.096;18.328;2022-09-09T03:42:16;12.60;99.90
21282;DHT22;10800;53.096;18.328;2022-09-09T03:47:30;12.60;99.90
21282;DHT22;10800;53.096;18.328;2022-09-09T03:52:40;12.50;99.90
21282;DHT22;10800;53.096;18.328;2022-09-09T03:57:59;12.60;99.90
21282;DHT22;10800;53.096;18.328;2022-09-09T04:03:08;12.60;99.90
21282;DHT22;10800;53.096;18.328;2022-09-09T04:08:27;12.60;99.90
21282;DHT22;10800;53.096;18.328;2022-09-09T04:13:34;12.70;99.90
21282;DHT22;10800;53.096;18.328;2022-09-09T04:18:44;12.60;99.90
21282;DHT22;10800;53.096;18.328;2022-09-09T04:23:49;12.60;99.90
21282;DHT22;10800;53.096;18.328;2022-09-09T04:28:55;12.60;99.90
21282;DHT22;10800;53.096;18.328;2022-09-09T04:34:00;12.60;99.90
21282;DHT22;10800;53.096;18.328;2022-09-09T04:39:09;12.60;99.90
21282;DHT22;10800;53.096;18.328;2022-09-09T04:44:20;12.60;99.90
21282;DHT22;10800;53.096;18.328;2022-09-09T04:49:26;12.60;99.90
21282;DHT22;10800;53.096;18.328;2022-09-09T04:54:31;12.70;99.90
21282;DHT22;10800;53.096;18.328;2022-09-09T04:59:36;12.70;99.90
21282;DHT22;10800;53.096;18.328;2022-09-09T05:04:43;12.80;99.90
21282;DHT22;10800;53.096;18.328;2022-09-09T05:09:52;12.70;99.90
21282;DHT22;10800;53.096;18.328;2022-09-09T05:14:59;12.70;99.90
21282;DHT22;10800;53.096;18.328;2022-09-09T05:20:15;12.70;99.90
21282;DHT22;10800;53.096;18.328;2022-09-09T05:25:22;12.70;99.90
21282;DHT22;10800;53.096;18.328;2022-09-09T05:30:34;12.80;99.90
21282;DHT22;10800;53.096;18.328;2022-09-09T05:35:41;12.90;99.90
21282;DHT22;10800;53.096;18.328;2022-09-09T05:40:48;13.00;99.90
21282;DHT22;10800;53.096;18.328;2022-09-09T05:46:02;13.00;99.90
21282;DHT22;10800;53.096;18.328;2022-09-09T05:51:18;13.00;99.90
21282;DHT22;10800;53.096;18.328;2022-09-09T05:56:29;13.00;99.90
21282;DHT22;10800;53.096;18.328;2022-09-09T06:01:39;13.00;99.90
21282;DHT22;10800;53.096;18.328;2022-09-09T06:06:48;13.10;99.90
21282;DHT22;10800;53.096;18.328;2022-09-09T06:11:59;13.10;99.90
21282;DHT22;10800;53.096;18.328;2022-09-09T06:17:06;13.10;99.90
21282;DHT22;10800;53.096;18.328;2022-09-09T06:22:14;13.20;99.90
21282;DHT22;10800;53.096;18.328;2022-09-09T06:27:20;13.30;99.90
21282;DHT22;10800;53.096;18.328;2022-09-09T06:32:25;13.20;99.90
21282;DHT22;10800;53.096;18.328;2022-09-09T06:37:32;13.30;99.90
21282;DHT22;10800;53.096;18.328;2022-09-09T06:42:40;13.40;99.90
21282;DHT22;10800;53.096;18.328;2022-09-09T06:47:48;13.30;99.90
21282;DHT22;10800;53.096;18.328;2022-09-09T06:52:53;13.20;99.90
21282;DHT22;10800;53.096;18.328;2022-09-09T06:57:59;13.30;99.90
21282;DHT22;10800;53.096;18.328;2022-09-09T07:03:04;13.30;99.90
21282;DHT22;10800;53.096;18.328;2022-09-09T07:08:13;13.40;99.90
21282;DHT22;10800;53.096;18.328;2022-09-09T07:13:24;13.40;99.90
21282;DHT22;10800;53.096;18.328;2022-09-09T07:18:31;13.50;99.90
21282;DHT22;10800;53.096;18.328;2022-09-09T07:23:38;13.50;99.90
21282;DHT22;10800;53.096;18.328;2022-09-09T07:28:44;13.60;99.90
21282;DHT22;10800;53.096;18.328;2022-09-09T07:33:50;13.60;99.90
21282;DHT22;10800;53.096;18.328;2022-09-09T07:38:57;13.70;99.90
21282;DHT22;10800;53.096;18.328;2022-09-09T07:44:08;13.80;99.90
21282;DHT22;10800;53.096;18.328;2022-09-09T07:49:15;13.80;99.90
21282;DHT22;10800;53.096;18.328;2022-09-09T07:54:43;13.70;99.90
21282;DHT22;10800;53.096;18.328;2022-09-09T07:59:50;13.70;99.90
21282;DHT22;10800;53.096;18.328;2022-09-09T08:04:57;13.80;99.90
21282;DHT22;10800;53.096;18.328;2022-09-09T08:10:04;13.90;99.90
21282;DHT22;10800;53.096;18.328;2022-09-09T08:15:11;14.00;99.90
21282;DHT22;10800;53.096;18.328;2022-09-09T08:20:17;14.20;99.90
21282;DHT22;10800;53.096;18.328;2022-09-09T08:25:23;14.40;99.90
21282;DHT22;10800;53.096;18.328;2022-09-09T08:30:28;14.40;99.90
21282;DHT22;10800;53.096;18.328;2022-09-09T08:35:39;14.50;99.90
21282;DHT22;10800;53.096;18.328;2022-09-09T08:40:49;14.40;99.90
21282;DHT22;10800;53.096;18.328;2022-09-09T08:46:54;14.40;99.90
21282;DHT22;10800;53.096;18.328;2022-09-09T08:51:18;14.60;99.90
21282;DHT22;10800;53.096;18.328;2022-09-09T08:56:26;14.80;99.90
21282;DHT22;10800;53.096;18.328;2022-09-09T09:02:04;14.90;99.90
21282;DHT22;10800;53.096;18.328;2022-09-09T09:12:23;15.10;99.90
21282;DHT22;10800;53.096;18.328;2022-09-09T09:17:29;15.10;99.90
21282;DHT22;10800;53.096;18.328;2022-09-09T09:22:49;15.20;99.90
21282;DHT22;10800;53.096;18.328;2022-09-09T09:28:03;15.40;99.90
21282;DHT22;10800;53.096;18.328;2022-09-09T09:38:26;15.70;99.90
21282;DHT22;10800;53.096;18.328;2022-09-09T09:43:37;15.70;99.90
21282;DHT22;10800;53.096;18.328;2022-09-09T09:48:43;15.70;99.90
21282;DHT22;10800;53.096;18.328;2022-09-09T09:53:50;15.80;99.90
21282;DHT22;10800;53.096;18.328;2022-09-09T09:58:57;15.90;99.90
21282;DHT22;10800;53.096;18.328;2022-09-09T10:04:20;16.00;99.90
21282;DHT22;10800;53.096;18.328;2022-09-09T10:09:29;16.20;99.90
21282;DHT22;10800;53.096;18.328;2022-09-09T10:36:46;16.40;99.90
21282;DHT22;10800;53.096;18.328;2022-09-09T10:42:13;16.40;99.90
21282;DHT22;10800;53.096;18.328;2022-09-09T10:53:01;16.70;99.90
21282;DHT22;10800;53.096;18.328;2022-09-09T10:58:05;16.60;99.90
21282;DHT22;10800;53.096;18.328;2022-09-09T11:03:20;16.80;99.90
21282;DHT22;10800;53.096;18.328;2022-09-09T11:08:33;16.90;99.90
21282;DHT22;10800;53.096;18.328;2022-09-09T11:19:19;17.00;99.90
21282;DHT22;10800;53.096;18.328;2022-09-09T11:24:35;17.30;99.90
21282;DHT22;10800;53.096;18.328;2022-09-09T11:30:05;17.50;99.90
21282;DHT22;10800;53.096;18.328;2022-09-09T11:41:01;18.10;99.90
21282;DHT22;10800;53.096;18.328;2022-09-09T11:46:06;18.30;99.90
21282;DHT22;10800;53.096;18.328;2022-09-09T11:56:29;18.30;99.90
21282;DHT22;10800;53.096;18.328;2022-09-09T12:01:40;18.50;99.90
21282;DHT22;10800;53.096;18.328;2022-09-09T12:17:24;19.70;99.90
21282;DHT22;10800;53.096;18.328;2022-09-09T12:22:56;20.10;99.90
21282;DHT22;10800;53.096;18.328;2022-09-09T12:28:13;20.10;99.90
21282;DHT22;10800;53.096;18.328;2022-09-09T12:33:18;20.10;99.90
21282;DHT22;10800;53.096;18.328;2022-09-09T12:43:48;21.40;99.90
21282;DHT22;10800;53.096;18.328;2022-09-09T12:48:54;21.10;99.90
21282;DHT22;10800;53.096;18.328;2022-09-09T12:54:00;21.00;99.90
21282;DHT22;10800;53.096;18.328;2022-09-09T12:59:17;20.70;99.90
21282;DHT22;10800;53.096;18.328;2022-09-09T13:04:19;20.80;99.90
21282;DHT22;10800;53.096;18.328;2022-09-09T13:09:24;20.70;99.90
21282;DHT22;10800;53.096;18.328;2022-09-09T13:14:33;21.10;99.90
21282;DHT22;10800;53.096;18.328;2022-09-09T13:19:43;21.20;99.90
21282;DHT22;10800;53.096;18.328;2022-09-09T13:25:01;21.00;99.90
21282;DHT22;10800;53.096;18.328;2022-09-09T13:35:27;20.50;99.90
21282;DHT22;10800;53.096;18.328;2022-09-09T13:40:33;20.80;99.90
21282;DHT22;10800;53.096;18.328;2022-09-09T13:51:03;21.60;99.90
21282;DHT22;10800;53.096;18.328;2022-09-09T13:56:10;21.40;99.90
21282;DHT22;10800;53.096;18.328;2022-09-09T14:01:15;21.40;99.90
21282;DHT22;10800;53.096;18.328;2022-09-09T14:06:21;21.60;99.90
21282;DHT22;10800;53.096;18.328;2022-09-09T14:11:26;21.10;99.90
21282;DHT22;10800;53.096;18.328;2022-09-09T14:16:32;20.90;99.90
21282;DHT22;10800;53.096;18.328;2022-09-09T14:21:37;21.00;99.90
21282;DHT22;10800;53.096;18.328;2022-09-09T14:26:42;20.80;99.90
21282;DHT22;10800;53.096;18.328;2022-09-09T14:31:48;21.00;99.90
21282;DHT22;10800;53.096;18.328;2022-09-09T14:36:53;20.80;99.90
21282;DHT22;10800;53.096;18.328;2022-09-09T14:42:00;20.50;99.90
21282;DHT22;10800;53.096;18.328;2022-09-09T14:47:07;20.60;99.90
21282;DHT22;10800;53.096;18.328;2022-09-09T14:52:16;20.70;99.90
21282;DHT22;10800;53.096;18.328;2022-09-09T14:57:22;20.60;99.90
21282;DHT22;10800;53.096;18.328;2022-09-09T15:02:27;20.40;99.90
21282;DHT22;10800;53.096;18.328;2022-09-09T15:07:34;20.40;99.90
21282;DHT22;10800;53.096;18.328;2022-09-09T15:12:40;20.30;99.90
21282;DHT22;10800;53.096;18.328;2022-09-09T15:17:49;20.40;99.90
21282;DHT22;10800;53.096;18.328;2022-09-09T15:22:54;20.10;99.90
21282;DHT22;10800;53.096;18.328;2022-09-09T15:28:08;19.70;99.90
21282;DHT22;10800;53.096;18.328;2022-09-09T15:33:13;19.50;99.90
21282;DHT22;10800;53.096;18.328;2022-09-09T15:38:18;19.40;99.90
21282;DHT22;10800;53.096;18.328;2022-09-09T15:43:23;19.30;99.90
21282;DHT22;10800;53.096;18.328;2022-09-09T15:48:32;19.10;99.90
21282;DHT22;10800;53.096;18.328;2022-09-09T15:53:38;19.10;99.90
21282;DHT22;10800;53.096;18.328;2022-09-09T15:58:44;18.90;99.90
21282;DHT22;10800;53.096;18.328;2022-09-09T16:03:49;19.50;99.90
21282;DHT22;10800;53.096;18.328;2022-09-09T16:08:57;19.40;99.90
21282;DHT22;10800;53.096;18.328;2022-09-09T16:14:06;19.30;99.90
21282;DHT22;10800;53.096;18.328;2022-09-09T16:19:14;19.00;99.90
21282;DHT22;10800;53.096;18.328;2022-09-09T16:24:23;18.70;99.90
21282;DHT22;10800;53.096;18.328;2022-09-09T16:29:35;18.50;99.90
21282;DHT22;10800;53.096;18.328;2022-09-09T16:34:40;18.30;99.90
21282;DHT22;10800;53.096;18.328;2022-09-09T16:39:46;18.10;99.90
21282;DHT22;10800;53.096;18.328;2022-09-09T16:44:52;18.20;99.90
21282;DHT22;10800;53.096;18.328;2022-09-09T16:49:57;18.00;99.90
21282;DHT22;10800;53.096;18.328;2022-09-09T16:55:02;17.70;99.90
21282;DHT22;10800;53.096;18.328;2022-09-09T17:00:08;17.60;99.90
21282;DHT22;10800;53.096;18.328;2022-09-09T17:05:15;17.80;99.90
21282;DHT22;10800;53.096;18.328;2022-09-09T17:10:20;17.60;99.90
21282;DHT22;10800;53.096;18.328;2022-09-09T17:15:28;17.60;99.90
21282;DHT22;10800;53.096;18.328;2022-09-09T17:20:37;17.50;99.90
21282;DHT22;10800;53.096;18.328;2022-09-09T17:25:45;17.60;99.90
21282;DHT22;10800;53.096;18.328;2022-09-09T17:30:53;17.60;99.90
21282;DHT22;10800;53.096;18.328;2022-09-09T17:36:10;17.60;99.90
21282;DHT22;10800;53.096;18.328;2022-09-09T17:41:21;17.30;99.90
21282;DHT22;10800;53.096;18.328;2022-09-09T17:46:29;17.10;99.90
21282;DHT22;10800;53.096;18.328;2022-09-09T17:51:36;16.80;99.90
21282;DHT22;10800;53.096;18.328;2022-09-09T17:56:42;16.90;99.90
21282;DHT22;10800;53.096;18.328;2022-09-09T18:01:49;16.80;99.90
21282;DHT22;10800;53.096;18.328;2022-09-09T18:06:54;16.80;99.90
21282;DHT22;10800;53.096;18.328;2022-09-09T18:12:00;16.80;99.90
21282;DHT22;10800;53.096;18.328;2022-09-09T18:17:06;16.80;99.90
21282;DHT22;10800;53.096;18.328;2022-09-09T18:22:12;16.70;99.90
21282;DHT22;10800;53.096;18.328;2022-09-09T18:27:17;16.40;99.90
21282;DHT22;10800;53.096;18.328;2022-09-09T18:32:23;16.40;99.90
21282;DHT22;10800;53.096;18.328;2022-09-09T18:37:30;16.40;99.90
21282;DHT22;10800;53.096;18.328;2022-09-09T18:42:39;16.40;99.90
21282;DHT22;10800;53.096;18.328;2022-09-09T18:58:32;16.40;99.90
21282;DHT22;10800;53.096;18.328;2022-09-09T19:03:39;16.20;99.90
21282;DHT22;10800;53.096;18.328;2022-09-09T19:08:47;16.20;99.90
21282;DHT22;10800;53.096;18.328;2022-09-09T19:14:05;16.10;99.90
21282;DHT22;10800;53.096;18.328;2022-09-09T19:19:10;16.10;99.90
21282;DHT22;10800;53.096;18.328;2022-09-09T19:24:16;16.00;99.90
21282;DHT22;10800;53.096;18.328;2022-09-09T19:29:24;15.90;99.90
21282;DHT22;10800;53.096;18.328;2022-09-09T19:34:31;15.80;99.90
21282;DHT22;10800;53.096;18.328;2022-09-09T19:39:38;15.80;99.90
21282;DHT22;10800;53.096;18.328;2022-09-09T19:44:48;15.70;99.90
21282;DHT22;10800;53.096;18.328;2022-09-09T19:49:54;15.60;99.90
21282;DHT22;10800;53.096;18.328;2022-09-09T19:54:59;15.70;99.90
21282;DHT22;10800;53.096;18.328;2022-09-09T20:00:05;15.80;99.90
21282;DHT22;10800;53.096;18.328;2022-09-09T20:05:11;15.80;99.90
21282;DHT22;10800;53.096;18.328;2022-09-09T20:10:17;15.70;99.90
21282;DHT22;10800;53.096;18.328;2022-09-09T20:15:22;15.60;99.90
21282;DHT22;10800;53.096;18.328;2022-09-09T20:20:27;15.60;99.90
21282;DHT22;10800;53.096;18.328;2022-09-09T20:25:35;15.60;99.90
21282;DHT22;10800;53.096;18.328;2022-09-09T20:30:41;15.60;99.90
21282;DHT22;10800;53.096;18.328;2022-09-09T20:35:46;15.70;99.90
21282;DHT22;10800;53.096;18.328;2022-09-09T20:40:52;15.50;99.90
21282;DHT22;10800;53.096;18.328;2022-09-09T20:46:03;15.50;99.90
21282;DHT22;10800;53.096;18.328;2022-09-09T20:51:08;15.40;99.90
21282;DHT22;10800;53.096;18.328;2022-09-09T20:56:14;15.40;99.90
21282;DHT22;10800;53.096;18.328;2022-09-09T21:01:21;15.40;99.90
21282;DHT22;10800;53.096;18.328;2022-09-09T21:06:26;15.40;99.90
21282;DHT22;10800;53.096;18.328;2022-09-09T21:11:32;15.50;99.90
21282;DHT22;10800;53.096;18.328;2022-09-09T21:16:38;15.50;99.90
21282;DHT22;10800;53.096;18.328;2022-09-09T21:21:43;15.50;99.90
21282;DHT22;10800;53.096;18.328;2022-09-09T21:26:50;15.40;99.90
21282;DHT22;10800;53.096;18.328;2022-09-09T21:31:57;15.50;99.90
21282;DHT22;10800;53.096;18.328;2022-09-09T21:37:04;15.50;99.90
21282;DHT22;10800;53.096;18.328;2022-09-09T21:42:10;15.50;99.90
21282;DHT22;10800;53.096;18.328;2022-09-09T21:47:16;15.40;99.90
21282;DHT22;10800;53.096;18.328;2022-09-09T21:52:22;15.30;99.90
21282;DHT22;10800;53.096;18.328;2022-09-09T21:57:27;15.30;99.90
21282;DHT22;10800;53.096;18.328;2022-09-09T22:02:32;15.30;99.90
21282;DHT22;10800;53.096;18.328;2022-09-09T22:07:40;15.30;99.90
21282;DHT22;10800;53.096;18.328;2022-09-09T22:12:46;15.30;99.90
21282;DHT22;10800;53.096;18.328;2022-09-09T22:17:52;15.30;99.90
21282;DHT22;10800;53.096;18.328;2022-09-09T22:23:00;15.30;99.90
21282;DHT22;10800;53.096;18.328;2022-09-09T22:28:07;15.30;99.90
21282;DHT22;10800;53.096;18.328;2022-09-09T22:33:12;15.30;99.90
21282;DHT22;10800;53.096;18.328;2022-09-09T22:38:18;15.30;99.90
21282;DHT22;10800;53.096;18.328;2022-09-09T22:43:23;15.20;99.90
21282;DHT22;10800;53.096;18.328;2022-09-09T22:48:36;15.20;99.90
21282;DHT22;10800;53.096;18.328;2022-09-09T22:53:43;15.20;99.90
21282;DHT22;10800;53.096;18.328;2022-09-09T22:58:54;15.20;99.90
21282;DHT22;10800;53.096;18.328;2022-09-09T23:03:59;15.10;99.90
21282;DHT22;10800;53.096;18.328;2022-09-09T23:09:06;15.10;99.90
21282;DHT22;10800;53.096;18.328;2022-09-09T23:14:11;15.20;99.90
21282;DHT22;10800;53.096;18.328;2022-09-09T23:19:17;15.00;99.90
21282;DHT22;10800;53.096;18.328;2022-09-09T23:24:24;15.00;99.90
21282;DHT22;10800;53.096;18.328;2022-09-09T23:29:29;15.00;99.90
21282;DHT22;10800;53.096;18.328;2022-09-09T23:34:34;15.10;99.90
21282;DHT22;10800;53.096;18.328;2022-09-09T23:39:41;15.10;99.90
21282;DHT22;10800;53.096;18.328;2022-09-09T23:44:46;15.10;99.90
21282;DHT22;10800;53.096;18.328;2022-09-09T23:49:51;15.10;99.90
21282;DHT22;10800;53.096;18.328;2022-09-09T23:54:56;15.10;99.90
